createdAt,value
2022-10-06T00:07:49.251Z,3.20
2022-10-06T00:12:53.579Z,2.95
2022-10-06T00:17:59.837Z,3.33
2022-10-06T00:23:03.471Z,2.97
2022-10-06T00:28:07.604Z,3.08
2022-10-06T00:33:16.406Z,3.22
2022-10-06T00:38:20.598Z,3.30
2022-10-06T00:43:46.009Z,3.50
2022-10-06T00:48:55.047Z,3.80
2022-10-06T00:53:59.013Z,3.50
2022-10-06T00:59:03.032Z,3.63
2022-10-06T01:04:13.171Z,4.07
2022-10-06T01:09:19.056Z,4.13
2022-10-06T01:14:24.713Z,4.72
2022-10-06T01:19:41.853Z,4.28
2022-10-06T01:24:50.757Z,3.83
2022-10-06T01:29:56.506Z,3.97
2022-10-06T01:34:59.814Z,4.68
2022-10-06T01:40:05.801Z,4.25
2022-10-06T01:45:09.761Z,4.20
2022-10-06T01:50:13.832Z,4.03
2022-10-06T01:55:20.161Z,4.03
2022-10-06T02:00:25.058Z,3.83
2022-10-06T02:05:30.029Z,4.28
2022-10-06T02:10:35.489Z,3.78
2022-10-06T02:15:39.703Z,4.35
2022-10-06T02:20:44.517Z,4.65
2022-10-06T02:30:55.043Z,4.47
2022-10-06T02:35:59.475Z,4.80
2022-10-06T02:41:05.472Z,5.28
2022-10-06T02:46:13.233Z,4.30
2022-10-06T02:51:20.169Z,5.00
2022-10-06T02:56:27.538Z,4.72
2022-10-06T03:01:32.026Z,5.20
2022-10-06T03:06:36.090Z,4.75
2022-10-06T03:11:43.428Z,5.17
2022-10-06T03:16:47.490Z,4.95
2022-10-06T03:21:51.696Z,4.80
2022-10-06T03:26:57.130Z,4.70
2022-10-06T03:32:01.655Z,4.97
2022-10-06T03:37:05.788Z,4.43
2022-10-06T03:42:11.257Z,4.57
2022-10-06T03:47:17.498Z,4.72
2022-10-06T03:52:25.743Z,4.38
2022-10-06T03:57:31.502Z,4.30
2022-10-06T04:02:34.800Z,4.43
2022-10-06T04:07:38.848Z,4.90
2022-10-06T04:12:43.574Z,5.20
2022-10-06T04:17:47.594Z,4.88
2022-10-06T04:22:50.916Z,4.97
2022-10-06T04:27:56.375Z,4.80
2022-10-06T04:32:59.820Z,5.20
2022-10-06T04:38:03.863Z,4.80
2022-10-06T04:43:08.711Z,4.90
2022-10-06T04:53:16.008Z,4.75
2022-10-06T04:58:21.484Z,4.25
2022-10-06T05:03:24.890Z,4.47
2022-10-06T05:08:29.192Z,4.07
2022-10-06T05:13:34.113Z,4.57
2022-10-06T05:18:38.645Z,4.70
2022-10-06T05:23:43.170Z,4.20
2022-10-06T05:28:48.668Z,3.88
2022-10-06T05:33:52.203Z,3.95
2022-10-06T05:38:56.949Z,3.60
2022-10-06T05:49:07.948Z,3.53
2022-10-06T05:54:11.314Z,3.78
2022-10-06T05:59:16.940Z,3.90
2022-10-06T06:04:20.489Z,3.63
2022-10-06T06:09:24.735Z,3.35
2022-10-06T06:14:43.390Z,3.35
2022-10-06T06:19:47.799Z,3.70
2022-10-06T06:24:51.386Z,3.95
2022-10-06T06:29:58.202Z,4.20
2022-10-06T06:35:01.539Z,4.03
2022-10-06T06:40:08.407Z,3.75
2022-10-06T06:45:14.232Z,3.15
2022-10-06T06:50:19.554Z,3.70
2022-10-06T06:55:23.632Z,4.28
2022-10-06T07:00:33.827Z,4.57
2022-10-06T07:05:41.075Z,4.18
2022-10-06T07:10:46.163Z,5.38
2022-10-06T07:16:09.853Z,5.65
2022-10-06T07:21:32.720Z,6.15
2022-10-06T07:26:36.818Z,4.57
2022-10-06T07:31:44.762Z,4.93
2022-10-06T07:36:53.550Z,4.85
2022-10-06T07:41:57.593Z,4.82
2022-10-06T07:47:03.283Z,4.13
2022-10-06T07:52:07.403Z,4.35
2022-10-06T07:57:11.508Z,5.05
2022-10-06T08:02:16.259Z,4.50
2022-10-06T08:12:37.843Z,4.43
2022-10-06T08:17:44.388Z,4.32
2022-10-06T08:22:49.327Z,4.25
2022-10-06T08:27:53.727Z,4.93
2022-10-06T08:32:59.083Z,4.85
2022-10-06T08:38:03.111Z,5.60
2022-10-06T08:43:18.011Z,5.00
2022-10-06T08:48:30.055Z,5.50
2022-10-06T08:53:39.599Z,5.40
2022-10-06T08:58:54.338Z,5.65
2022-10-06T09:04:02.394Z,5.13
2022-10-06T09:09:16.020Z,5.25
2022-10-06T09:14:22.741Z,6.40
2022-10-06T09:19:39.580Z,5.80
2022-10-06T09:24:47.164Z,6.45
2022-10-06T09:29:52.765Z,7.35
2022-10-06T09:34:59.949Z,7.10
2022-10-06T09:40:04.102Z,7.65
2022-10-06T09:45:25.475Z,7.78
2022-10-06T09:50:31.486Z,8.27
2022-10-06T09:55:45.481Z,6.95
2022-10-06T10:00:54.527Z,8.43
2022-10-06T10:06:03.087Z,8.40
2022-10-06T10:11:33.362Z,8.23
2022-10-06T10:16:37.993Z,7.93
2022-10-06T10:26:58.747Z,7.88
2022-10-06T10:32:13.237Z,8.43
2022-10-06T10:37:22.746Z,8.23
2022-10-06T10:42:32.554Z,7.70
2022-10-06T10:47:39.848Z,8.15
2022-10-06T10:52:47.580Z,7.47
2022-10-06T10:57:53.762Z,7.60
2022-10-06T11:02:59.890Z,8.23
2022-10-06T11:08:13.139Z,7.65
2022-10-06T11:13:24.741Z,7.78
2022-10-06T11:18:44.937Z,7.82
2022-10-06T11:23:55.383Z,7.68
2022-10-06T11:29:05.607Z,7.75
2022-10-06T11:34:11.290Z,7.57
2022-10-06T11:39:26.607Z,7.68
2022-10-06T11:44:37.149Z,7.70
2022-10-06T11:49:53.046Z,7.50
2022-10-06T11:55:08.676Z,7.90
2022-10-06T12:00:45.228Z,7.95
2022-10-06T12:05:56.283Z,7.10
2022-10-06T12:11:01.661Z,7.63
2022-10-06T12:21:55.001Z,7.03
2022-10-06T12:27:25.738Z,6.72
2022-10-06T12:32:46.599Z,7.30
2022-10-06T12:37:54.455Z,7.00
2022-10-06T12:43:58.588Z,6.53
2022-10-06T12:49:14.297Z,6.90
2022-10-06T12:54:21.673Z,6.55
2022-10-06T12:59:28.775Z,6.43
2022-10-06T13:04:38.278Z,6.13
2022-10-06T13:09:42.992Z,6.68
2022-10-06T13:19:54.593Z,6.40
2022-10-06T13:25:01.569Z,5.93
2022-10-06T13:30:20.355Z,6.05
2022-10-06T13:35:27.642Z,6.15
2022-10-06T13:40:43.974Z,6.40
2022-10-06T13:45:50.669Z,6.20
2022-10-06T13:50:55.123Z,6.85
2022-10-06T13:56:00.124Z,5.97
2022-10-06T14:01:05.703Z,7.15
2022-10-06T14:06:16.610Z,6.80
2022-10-06T14:11:25.589Z,7.13
2022-10-06T14:16:33.069Z,7.10
2022-10-06T14:21:42.666Z,8.10
2022-10-06T14:26:47.717Z,7.60
2022-10-06T14:31:53.208Z,7.88
2022-10-06T14:36:58.094Z,8.13
2022-10-06T14:42:02.107Z,7.10
2022-10-06T14:47:10.059Z,8.10
2022-10-06T14:52:14.661Z,8.95
2022-10-06T14:57:18.745Z,8.10
2022-10-06T15:02:23.669Z,7.90
2022-10-06T15:07:45.636Z,7.57
2022-10-06T15:12:49.471Z,7.25
2022-10-06T15:17:55.464Z,8.30
2022-10-06T15:22:58.734Z,8.27
2022-10-06T15:28:22.901Z,8.52
2022-10-06T15:38:38.497Z,9.13
2022-10-06T15:43:57.474Z,9.38
2022-10-06T15:49:04.481Z,8.90
2022-10-06T15:54:08.377Z,8.13
2022-10-06T15:59:12.662Z,8.30
2022-10-06T16:04:26.188Z,8.52
2022-10-06T16:09:32.175Z,9.50
2022-10-06T16:14:36.447Z,8.32
2022-10-06T16:19:42.141Z,9.10
2022-10-06T16:24:45.647Z,8.80
2022-10-06T16:29:49.981Z,9.75
2022-10-06T16:34:54.790Z,9.27
2022-10-06T16:45:02.873Z,9.60
2022-10-06T16:50:10.348Z,10.45
2022-10-06T16:55:15.060Z,9.93
2022-10-06T17:05:25.203Z,9.70
2022-10-06T17:10:29.591Z,9.50
2022-10-06T17:15:33.734Z,9.85
2022-10-06T17:20:39.872Z,8.90
2022-10-06T17:25:44.072Z,10.13
2022-10-06T17:30:53.986Z,10.25
2022-10-06T17:36:03.779Z,10.75
2022-10-06T17:41:10.560Z,10.23
2022-10-06T17:46:19.692Z,10.00
2022-10-06T17:51:27.005Z,10.48
2022-10-06T17:56:34.628Z,10.43
2022-10-06T18:01:38.971Z,10.10
2022-10-06T18:06:46.296Z,10.10
2022-10-06T18:11:56.673Z,10.30
2022-10-06T18:17:03.220Z,10.63
2022-10-06T18:22:12.514Z,10.55
2022-10-06T18:27:16.690Z,10.43
2022-10-06T18:37:46.281Z,11.60
2022-10-06T18:42:50.098Z,10.93
2022-10-06T18:48:11.804Z,10.77
2022-10-06T18:53:16.735Z,10.45
2022-10-06T18:58:21.269Z,10.70
2022-10-06T19:03:28.487Z,11.07
2022-10-06T19:08:34.411Z,10.57
2022-10-06T19:13:38.420Z,11.57
2022-10-06T19:18:42.827Z,11.27
2022-10-06T19:23:47.656Z,10.52
2022-10-06T19:28:54.497Z,10.10
2022-10-06T19:34:02.245Z,10.27
2022-10-06T19:39:11.367Z,9.82
2022-10-06T19:44:14.834Z,10.25
2022-10-06T19:49:19.711Z,10.90
2022-10-06T19:54:24.453Z,9.90
2022-10-06T20:04:32.231Z,10.35
2022-10-06T20:09:37.999Z,10.53
2022-10-06T20:14:41.344Z,11.23
2022-10-06T20:19:46.197Z,10.60
2022-10-06T20:24:51.572Z,11.23
2022-10-06T20:29:55.959Z,13.40
2022-10-06T20:34:59.405Z,12.55
2022-10-06T20:40:22.209Z,12.32
2022-10-06T20:45:26.339Z,12.52
2022-10-06T20:50:32.428Z,12.50
2022-10-06T20:55:37.907Z,13.10
2022-10-06T21:00:41.991Z,12.02
2022-10-06T21:05:50.843Z,12.57
2022-10-06T21:11:00.572Z,11.98
2022-10-06T21:16:05.544Z,12.35
2022-10-06T21:21:09.626Z,12.80
2022-10-06T21:26:18.089Z,12.02
2022-10-06T21:31:24.059Z,12.07
2022-10-06T21:36:30.020Z,11.32
2022-10-06T21:41:39.666Z,11.68
2022-10-06T21:46:47.458Z,11.00
2022-10-06T21:51:53.967Z,11.50
2022-10-06T21:56:59.951Z,10.82
2022-10-06T22:02:04.061Z,10.25
2022-10-06T22:07:08.187Z,11.50
2022-10-06T22:12:14.237Z,11.32
2022-10-06T22:17:17.936Z,10.55
2022-10-06T22:22:21.479Z,10.25
2022-10-06T22:27:26.305Z,10.70
2022-10-06T22:32:29.681Z,11.25
2022-10-06T22:37:33.000Z,9.50
2022-10-06T22:42:37.659Z,10.30
2022-10-06T22:52:44.067Z,10.40
2022-10-06T22:57:48.757Z,10.80
2022-10-06T23:07:55.233Z,9.70
2022-10-06T23:13:00.767Z,9.55
2022-10-06T23:18:04.573Z,9.82
2022-10-06T23:23:07.908Z,10.18
2022-10-06T23:28:14.760Z,10.48
2022-10-06T23:33:18.129Z,10.25
2022-10-06T23:38:21.396Z,10.88
2022-10-06T23:43:26.153Z,8.85
2022-10-06T23:53:33.690Z,8.70
2022-10-06T23:58:47.348Z,8.80
